Terminal Aerodrome Forecast
Issued by NWS

Home | Current Version | Previous Version | Text Only | Print | Product List | Glossary On
Versions: 1 2 3 4 5 6 7 8 9 10 11 12 13 14 15
000
FTUS41 KPHI 221756
TAFMIV
TAF
KMIV 221756Z 2218/2318 18006KT P6SM FEW010 OVC100
     FM222200 VRB04KT P6SM BKN250
     FM230500 VRB03KT 5SM BR SCT010 BKN250
     FM230700 20003KT 2SM BR SCT003 BKN110
     FM230900 20004KT 1SM BR OVC003
     FM231300 21007KT P6SM SCT006 BKN012
     FM231600 22009KT P6SM SCT012 BKN060
     FM231700 22008KT P6SM FEW015 SCT060=

USA.gov is the U.S. government's official web portal to all federal, state and local government web resources and services.